createdAt,value
2018-04-18T00:02:20.465Z,17.77
2018-04-18T00:04:46.657Z,16.77
2018-04-18T00:07:12.918Z,16.43
2018-04-18T00:09:39.152Z,19.17
2018-04-18T00:12:05.366Z,20.03
2018-04-18T00:14:31.573Z,18.03
2018-04-18T00:16:57.826Z,18.80
2018-04-18T00:19:24.011Z,17.03
2018-04-18T00:21:50.952Z,17.87
2018-04-18T00:24:17.899Z,18.30
2018-04-18T00:26:44.866Z,18.73
2018-04-18T00:29:11.143Z,18.80
2018-04-18T00:31:37.384Z,19.97
2018-04-18T00:34:03.665Z,19.60
2018-04-18T00:36:29.877Z,19.77
2018-04-18T00:38:56.119Z,18.77
2018-04-18T00:41:22.295Z,19.23
2018-04-18T00:43:55.424Z,19.03
2018-04-18T00:46:21.609Z,20.47
2018-04-18T00:48:47.816Z,19.63
2018-04-18T00:51:14.008Z,20.07
2018-04-18T00:53:40.396Z,19.83
2018-04-18T00:56:06.600Z,19.00
2018-04-18T00:58:32.803Z,19.17
2018-04-18T01:00:59.027Z,17.00
2018-04-18T01:03:25.240Z,17.70
2018-04-18T01:05:51.485Z,17.37
2018-04-18T01:08:17.691Z,17.00
2018-04-18T01:10:44.087Z,16.97
2018-04-18T01:13:10.327Z,17.70
2018-04-18T01:15:37.423Z,15.77
2018-04-18T01:18:03.707Z,18.10
2018-04-18T01:20:29.903Z,16.70
2018-04-18T01:22:56.131Z,16.47
2018-04-18T01:25:22.356Z,17.20
2018-04-18T01:27:48.573Z,16.73
2018-04-18T01:30:14.827Z,15.80
2018-04-18T01:32:41.044Z,15.10
2018-04-18T01:35:07.284Z,15.77
2018-04-18T01:37:34.213Z,16.20
2018-04-18T01:40:00.663Z,15.53
2018-04-18T01:42:26.894Z,14.43
2018-04-18T01:44:53.888Z,14.10
2018-04-18T01:47:20.149Z,14.40
2018-04-18T01:49:46.377Z,13.33
2018-04-18T01:52:12.645Z,13.43
2018-04-18T01:54:38.876Z,13.57
2018-04-18T01:57:05.833Z,14.43
2018-04-18T01:59:32.038Z,13.70
2018-04-18T02:01:58.982Z,14.40
2018-04-18T02:04:25.919Z,14.17
2018-04-18T02:06:52.896Z,14.03
2018-04-18T02:09:19.104Z,13.30
2018-04-18T02:11:46.065Z,13.63
2018-04-18T02:14:12.297Z,13.77
2018-04-18T02:16:38.500Z,13.87
2018-04-18T02:19:05.432Z,13.23
2018-04-18T02:21:31.657Z,12.87
2018-04-18T02:23:57.873Z,13.03
2018-04-18T02:26:24.051Z,13.10
2018-04-18T02:28:50.308Z,12.93
2018-04-18T02:31:16.524Z,12.03
2018-04-18T02:33:42.761Z,12.20
2018-04-18T02:36:09.005Z,11.07
2018-04-18T02:38:35.215Z,12.10
2018-04-18T02:41:01.416Z,11.90
2018-04-18T02:43:27.620Z,11.70
2018-04-18T02:45:54.591Z,10.60
2018-04-18T02:48:20.865Z,11.73
2018-04-18T02:50:47.118Z,10.37
2018-04-18T02:53:14.087Z,11.87
2018-04-18T02:55:40.296Z,11.83
2018-04-18T02:58:07.304Z,10.80
2018-04-18T03:00:33.564Z,11.37
2018-04-18T03:02:59.830Z,10.80
2018-04-18T03:05:26.196Z,11.00
2018-04-18T03:07:52.376Z,11.60
2018-04-18T03:10:19.357Z,11.20
2018-04-18T03:12:45.689Z,11.27
2018-04-18T03:15:11.894Z,11.17
2018-04-18T03:17:38.146Z,10.97
2018-04-18T03:20:05.226Z,11.10
2018-04-18T03:22:31.437Z,10.10
2018-04-18T03:24:57.641Z,10.43
2018-04-18T03:27:23.844Z,10.97
2018-04-18T03:29:50.038Z,9.97
2018-04-18T03:32:16.239Z,9.67
2018-04-18T03:34:42.475Z,9.77
2018-04-18T03:37:08.692Z,8.80
2018-04-18T03:39:34.888Z,9.77
2018-04-18T03:42:01.115Z,8.87
2018-04-18T03:44:27.321Z,8.87
2018-04-18T03:46:53.564Z,8.60
2018-04-18T03:49:19.789Z,8.70
2018-04-18T03:51:45.992Z,8.70
2018-04-18T03:54:12.964Z,8.90
2018-04-18T03:56:39.177Z,9.30
2018-04-18T03:59:06.148Z,9.87
2018-04-18T04:01:32.338Z,10.13
2018-04-18T04:03:59.272Z,10.47
2018-04-18T04:06:25.467Z,9.80
2018-04-18T04:08:51.671Z,10.03
2018-04-18T04:11:18.895Z,8.43
2018-04-18T04:13:45.857Z,9.07
2018-04-18T04:16:36.047Z,8.60
2018-04-18T04:19:15.282Z,8.40
2018-04-18T04:21:53.800Z,7.87
2018-04-18T04:24:32.267Z,8.43
2018-04-18T04:26:58.476Z,8.80
2018-04-18T04:29:24.684Z,9.07
2018-04-18T04:31:50.869Z,9.10
2018-04-18T04:34:17.856Z,9.47
2018-04-18T04:36:44.121Z,9.77
2018-04-18T04:39:10.320Z,9.93
2018-04-18T04:41:36.644Z,9.47
2018-04-18T04:44:02.852Z,8.60
2018-04-18T04:46:29.083Z,9.20
2018-04-18T04:48:55.275Z,8.20
2018-04-18T04:51:22.244Z,9.30
2018-04-18T04:53:48.454Z,8.47
2018-04-18T04:56:15.424Z,7.80
2018-04-18T04:58:41.684Z,7.93
2018-04-18T05:01:07.956Z,7.60
2018-04-18T05:03:34.211Z,8.13
2018-04-18T05:06:00.452Z,8.67
2018-04-18T05:08:26.686Z,8.53
2018-04-18T05:10:52.908Z,8.10
2018-04-18T05:13:19.098Z,8.77
2018-04-18T05:15:45.839Z,8.23
2018-04-18T05:18:12.117Z,8.27
2018-04-18T05:20:38.352Z,8.80
2018-04-18T05:23:04.600Z,9.40
2018-04-18T05:25:30.784Z,8.47
2018-04-18T05:27:57.096Z,7.73
2018-04-18T05:30:23.319Z,7.50
2018-04-18T05:32:49.566Z,7.07
2018-04-18T05:35:15.780Z,7.80
2018-04-18T05:37:42.084Z,8.20
2018-04-18T05:40:08.301Z,8.20
2018-04-18T05:42:34.513Z,7.30
2018-04-18T05:45:00.737Z,6.90
2018-04-18T05:47:26.960Z,6.70
2018-04-18T05:49:53.265Z,6.83
2018-04-18T05:52:19.584Z,7.40
2018-04-18T05:57:18.962Z,7.03
2018-04-18T05:59:49.606Z,6.87
2018-04-18T06:02:16.580Z,6.40
2018-04-18T06:04:42.795Z,6.57
2018-04-18T06:07:09.842Z,6.70
2018-04-18T06:09:36.346Z,6.53
2018-04-18T06:12:02.600Z,6.90
2018-04-18T06:14:28.840Z,6.83
2018-04-18T06:16:55.047Z,7.03
2018-04-18T06:19:21.324Z,6.43
2018-04-18T06:21:47.600Z,6.57
2018-04-18T06:24:14.575Z,6.63
2018-04-18T06:26:40.791Z,6.60
2018-04-18T06:29:06.985Z,6.23
2018-04-18T06:31:33.188Z,6.00
2018-04-18T06:33:59.415Z,5.70
2018-04-18T06:36:26.620Z,6.07
2018-04-18T06:38:52.847Z,6.23
2018-04-18T06:41:19.169Z,6.20
2018-04-18T06:43:45.368Z,6.23
2018-04-18T06:46:12.335Z,6.00
2018-04-18T06:48:39.334Z,6.33
2018-04-18T06:51:06.408Z,5.90
2018-04-18T06:53:32.671Z,6.03
2018-04-18T06:55:58.951Z,6.03
2018-04-18T06:58:25.152Z,6.57
2018-04-18T07:00:51.360Z,6.47
2018-04-18T07:03:17.588Z,6.23
2018-04-18T07:05:43.776Z,6.60
2018-04-18T07:08:11.088Z,6.37
2018-04-18T07:10:37.318Z,7.43
2018-04-18T07:13:03.537Z,6.30
2018-04-18T07:15:29.748Z,6.80
2018-04-18T07:17:55.931Z,6.57
2018-04-18T07:20:22.168Z,7.70
2018-04-18T07:22:48.383Z,6.77
2018-04-18T07:25:14.576Z,7.50
2018-04-18T07:27:40.895Z,7.50
2018-04-18T07:30:07.104Z,7.20
2018-04-18T07:32:33.349Z,7.60
2018-04-18T07:34:59.573Z,7.33
2018-04-18T07:37:25.820Z,7.40
2018-04-18T07:39:52.020Z,7.97
2018-04-18T07:42:18.228Z,8.40
2018-04-18T07:44:45.181Z,6.97
2018-04-18T07:47:12.138Z,7.40
2018-04-18T07:49:38.348Z,6.70
2018-04-18T07:52:04.593Z,7.07
2018-04-18T07:54:31.552Z,7.10
2018-04-18T07:56:57.770Z,6.83
2018-04-18T07:59:23.992Z,7.07
2018-04-18T08:01:50.953Z,7.53
2018-04-18T08:04:17.908Z,7.20
2018-04-18T08:06:44.153Z,7.22
2018-04-18T08:09:10.447Z,7.00
2018-04-18T08:11:36.755Z,6.53
2018-04-18T08:14:03.001Z,6.85
2018-04-18T08:16:29.306Z,6.68
2018-04-18T08:18:56.348Z,7.60
2018-04-18T08:21:22.595Z,6.60
2018-04-18T08:23:49.201Z,8.60
2018-04-18T08:26:15.540Z,8.70
2018-04-18T08:28:41.782Z,9.00
2018-04-18T08:31:09.164Z,9.02
2018-04-18T08:33:36.659Z,8.82
2018-04-18T08:36:03.260Z,9.15
2018-04-18T08:38:30.862Z,8.55
2018-04-18T08:40:57.278Z,8.52
2018-04-18T08:43:23.507Z,8.05
2018-04-18T08:45:55.911Z,7.68
2018-04-18T08:48:24.017Z,8.30
2018-04-18T08:50:50.250Z,7.68
2018-04-18T08:53:16.505Z,6.93
2018-04-18T08:55:48.869Z,7.55
2018-04-18T08:58:15.864Z,7.30
2018-04-18T09:00:42.185Z,6.78
2018-04-18T09:03:08.460Z,6.82
2018-04-18T09:05:34.701Z,6.57
2018-04-18T09:08:00.989Z,7.10
2018-04-18T09:10:27.180Z,7.12
2018-04-18T09:12:54.145Z,6.25
2018-04-18T09:15:20.368Z,6.90
2018-04-18T09:17:52.816Z,7.80
2018-04-18T09:20:19.134Z,7.32
2018-04-18T09:22:45.364Z,6.90
2018-04-18T09:25:11.577Z,8.43
2018-04-18T09:27:37.816Z,7.53
2018-04-18T09:30:04.012Z,9.25
2018-04-18T09:32:30.205Z,9.48
2018-04-18T09:34:56.385Z,9.75
2018-04-18T09:37:23.460Z,9.95
2018-04-18T09:39:49.655Z,8.85
2018-04-18T09:42:16.623Z,9.35
2018-04-18T09:44:42.833Z,9.63
2018-04-18T09:47:10.655Z,9.45
2018-04-18T09:49:36.922Z,10.75
2018-04-18T09:52:03.144Z,9.55
2018-04-18T09:54:29.320Z,9.75
2018-04-18T09:56:55.569Z,10.05
2018-04-18T09:59:21.797Z,9.07
2018-04-18T10:01:48.047Z,10.02
2018-04-18T10:04:15.001Z,10.63
2018-04-18T10:06:41.904Z,11.05
2018-04-18T10:09:08.139Z,10.80
2018-04-18T10:11:34.402Z,10.48
2018-04-18T10:14:00.598Z,11.05
2018-04-18T10:16:26.794Z,11.73
2018-04-18T10:18:52.980Z,12.10
2018-04-18T10:21:25.281Z,11.55
2018-04-18T10:23:51.492Z,11.12
2018-04-18T10:26:17.732Z,10.77
2018-04-18T10:28:43.933Z,10.13
2018-04-18T10:31:10.901Z,9.43
2018-04-18T10:33:37.109Z,9.57
2018-04-18T10:36:03.397Z,9.33
2018-04-18T10:38:29.573Z,8.80
2018-04-18T10:40:55.781Z,9.10
2018-04-18T10:43:22.757Z,10.73
2018-04-18T10:45:48.983Z,9.93
2018-04-18T10:48:15.190Z,9.57
2018-04-18T10:50:42.137Z,9.00
2018-04-18T10:53:09.087Z,8.63
2018-04-18T10:55:35.330Z,9.77
2018-04-18T10:58:01.544Z,8.63
2018-04-18T11:00:27.805Z,8.93
2018-04-18T11:02:54.031Z,8.03
2018-04-18T11:05:20.234Z,9.00
2018-04-18T11:07:46.479Z,10.43
2018-04-18T11:10:12.674Z,9.60
2018-04-18T11:12:45.260Z,9.70
2018-04-18T11:15:11.765Z,8.63
2018-04-18T11:17:38.756Z,9.73
2018-04-18T11:20:04.992Z,11.03
2018-04-18T11:22:31.224Z,10.47
2018-04-18T11:24:57.464Z,9.10
2018-04-18T11:27:24.469Z,10.03
2018-04-18T11:29:50.725Z,7.77
2018-04-18T11:32:16.952Z,9.67
2018-04-18T11:34:43.198Z,10.13
2018-04-18T11:37:09.461Z,9.23
2018-04-18T11:39:35.732Z,9.17
2018-04-18T11:42:01.942Z,8.60
2018-04-18T11:44:28.188Z,8.40
2018-04-18T11:46:54.408Z,9.10
2018-04-18T11:49:20.657Z,9.10
2018-04-18T11:51:47.636Z,8.40
2018-04-18T11:54:13.892Z,8.43
2018-04-18T11:56:40.115Z,8.93
2018-04-18T11:59:06.325Z,8.50
2018-04-18T12:01:32.540Z,8.80
2018-04-18T12:03:58.764Z,8.60
2018-04-18T12:06:25.013Z,7.90
2018-04-18T12:08:51.915Z,8.67
2018-04-18T12:11:18.135Z,9.03
2018-04-18T12:13:44.440Z,9.73
2018-04-18T12:16:10.644Z,10.30
2018-04-18T12:18:36.874Z,7.80
2018-04-18T12:21:03.119Z,8.93
2018-04-18T12:23:29.373Z,8.63
2018-04-18T12:25:55.856Z,9.37
2018-04-18T12:28:22.872Z,10.53
2018-04-18T12:30:49.828Z,10.27
2018-04-18T12:33:16.058Z,10.93
2018-04-18T12:35:42.303Z,10.13
2018-04-18T12:38:08.508Z,9.93
2018-04-18T12:40:34.820Z,9.63
2018-04-18T12:43:01.049Z,10.37
2018-04-18T12:45:28.006Z,11.50
2018-04-18T12:47:54.275Z,11.67
2018-04-18T12:50:20.484Z,11.80
2018-04-18T12:52:46.736Z,10.03
2018-04-18T12:55:12.959Z,11.63
2018-04-18T12:57:39.217Z,12.83
2018-04-18T13:00:05.434Z,11.80
2018-04-18T13:02:31.690Z,12.10
2018-04-18T13:04:57.904Z,10.93
2018-04-18T13:07:24.211Z,12.07
2018-04-18T13:09:50.463Z,12.30
2018-04-18T13:14:55.486Z,12.60
2018-04-18T13:17:21.765Z,11.90
2018-04-18T13:19:48.731Z,13.80
2018-04-18T13:22:14.972Z,14.00
2018-04-18T13:24:41.372Z,15.03
2018-04-18T13:27:07.694Z,13.60
2018-04-18T13:29:34.823Z,12.83
2018-04-18T13:32:01.052Z,13.10
2018-04-18T13:34:27.269Z,13.97
2018-04-18T13:36:53.494Z,13.90
2018-04-18T13:39:19.749Z,12.50
2018-04-18T13:41:46.925Z,13.90
2018-04-18T13:44:13.227Z,13.40
2018-04-18T13:46:39.483Z,14.20
2018-04-18T13:49:05.923Z,14.10
2018-04-18T13:51:32.297Z,13.87
2018-04-18T13:53:58.505Z,14.30
2018-04-18T13:56:25.523Z,14.53
2018-04-18T13:58:52.025Z,13.00
2018-04-18T14:01:18.373Z,12.67
2018-04-18T14:03:45.364Z,13.03
2018-04-18T14:06:11.992Z,12.53
2018-04-18T14:08:38.791Z,12.73
2018-04-18T14:11:05.757Z,12.37
2018-04-18T14:13:32.001Z,11.80
2018-04-18T14:15:58.236Z,11.00
2018-04-18T14:18:24.761Z,12.80
2018-04-18T14:20:51.079Z,12.60
2018-04-18T14:23:17.334Z,11.17
2018-04-18T14:25:44.376Z,12.07
2018-04-18T14:28:10.643Z,11.13
2018-04-18T14:30:36.845Z,11.10
2018-04-18T14:33:03.127Z,10.80
2018-04-18T14:35:29.463Z,9.60
2018-04-18T14:37:55.713Z,10.07
2018-04-18T14:40:21.977Z,9.20
2018-04-18T14:42:49.661Z,8.47
2018-04-18T14:45:16.011Z,6.87
2018-04-18T14:47:42.286Z,6.87
2018-04-18T14:50:08.512Z,5.37
2018-04-18T14:52:34.724Z,5.03
2018-04-18T14:55:00.948Z,4.13
2018-04-18T14:57:27.156Z,3.17
2018-04-18T14:59:53.404Z,3.30
2018-04-18T15:02:19.721Z,2.93
2018-04-18T15:04:45.953Z,2.80
2018-04-18T15:07:13.007Z,2.80
2018-04-18T15:09:39.241Z,2.80
2018-04-18T15:12:05.492Z,2.47
2018-04-18T15:14:31.849Z,2.83
2018-04-18T15:16:58.144Z,2.40
2018-04-18T15:19:25.805Z,2.70
2018-04-18T15:21:52.040Z,2.83
2018-04-18T15:24:18.333Z,2.93
2018-04-18T15:26:45.356Z,3.07
2018-04-18T15:29:12.349Z,2.77
2018-04-18T15:31:38.559Z,2.90
2018-04-18T15:34:04.840Z,2.47
2018-04-18T15:36:31.842Z,2.50
2018-04-18T15:39:04.168Z,2.40
2018-04-18T15:41:31.248Z,2.47
2018-04-18T15:43:57.457Z,2.53
2018-04-18T15:46:23.664Z,2.40
2018-04-18T15:48:50.624Z,2.40
2018-04-18T15:51:17.615Z,2.30
2018-04-18T15:53:44.907Z,2.67
2018-04-18T15:56:11.876Z,2.13
2018-04-18T15:58:38.150Z,2.77
2018-04-18T16:01:04.376Z,2.70
2018-04-18T16:03:30.605Z,2.43
2018-04-18T16:05:57.260Z,2.40
2018-04-18T16:08:24.203Z,2.40
2018-04-18T16:10:51.184Z,2.30
2018-04-18T16:13:17.411Z,2.60
2018-04-18T16:15:43.676Z,2.80
2018-04-18T16:18:09.914Z,2.40
2018-04-18T16:20:37.864Z,2.40
2018-04-18T16:23:04.102Z,2.50
2018-04-18T16:25:30.353Z,2.20
2018-04-18T16:28:02.743Z,2.40
2018-04-18T16:30:39.954Z,2.20
2018-04-18T16:33:06.225Z,2.50
2018-04-18T16:35:32.424Z,2.37
2018-04-18T16:37:58.662Z,2.43
2018-04-18T16:40:24.866Z,2.40
2018-04-18T16:42:51.076Z,2.43
2018-04-18T16:45:18.115Z,2.80
2018-04-18T16:47:45.076Z,2.40
2018-04-18T16:50:11.304Z,2.40
2018-04-18T16:52:37.532Z,2.33
2018-04-18T16:55:03.753Z,2.63
2018-04-18T16:57:30.037Z,2.10
2018-04-18T16:59:56.272Z,2.37
2018-04-18T17:02:22.513Z,2.00
2018-04-18T17:04:49.520Z,2.30
2018-04-18T17:07:15.739Z,1.97
2018-04-18T17:09:42.032Z,2.50
2018-04-18T17:12:09.150Z,2.17
2018-04-18T17:14:35.384Z,2.30
2018-04-18T17:17:01.605Z,2.30
2018-04-18T17:19:27.827Z,2.70
2018-04-18T17:21:54.024Z,2.60
2018-04-18T17:24:20.266Z,2.30
2018-04-18T17:26:46.510Z,2.50
2018-04-18T17:29:12.715Z,2.23
2018-04-18T17:31:39.003Z,2.50
2018-04-18T17:34:06.023Z,2.83
2018-04-18T17:36:32.338Z,2.60
2018-04-18T17:38:58.576Z,2.10
2018-04-18T17:41:24.787Z,2.87
2018-04-18T17:43:51.044Z,3.00
2018-04-18T17:46:18.099Z,3.87
2018-04-18T17:48:44.487Z,3.10
2018-04-18T17:51:10.727Z,3.40
2018-04-18T17:53:36.962Z,2.73
2018-04-18T17:56:03.186Z,2.83
2018-04-18T17:58:29.572Z,3.40
2018-04-18T18:00:55.825Z,3.03
2018-04-18T18:03:22.098Z,3.60
2018-04-18T18:05:48.365Z,3.67
2018-04-18T18:08:14.650Z,3.80
2018-04-18T18:10:40.850Z,3.60
2018-04-18T18:13:07.102Z,3.53
2018-04-18T18:15:33.381Z,3.40
2018-04-18T18:17:59.609Z,3.90
2018-04-18T18:20:25.832Z,3.73
2018-04-18T18:22:52.264Z,3.53
2018-04-18T18:25:18.910Z,3.30
2018-04-18T18:27:45.268Z,4.00
2018-04-18T18:30:11.756Z,3.40
2018-04-18T18:32:38.831Z,3.37
2018-04-18T18:35:05.121Z,3.93
2018-04-18T18:37:31.412Z,3.70
2018-04-18T18:39:57.689Z,3.50
2018-04-18T18:42:23.935Z,3.60
2018-04-18T18:44:50.149Z,3.43
2018-04-18T18:47:17.189Z,3.50
2018-04-18T18:49:43.475Z,3.27
2018-04-18T18:52:09.680Z,3.40
2018-04-18T18:54:35.896Z,3.50
2018-04-18T18:57:02.206Z,3.40
2018-04-18T18:59:28.410Z,3.80
2018-04-18T19:01:54.683Z,4.07
2018-04-18T19:04:20.945Z,4.37
2018-04-18T19:06:47.188Z,4.20
2018-04-18T19:09:14.890Z,3.97
2018-04-18T19:11:41.161Z,7.90
2018-04-18T19:14:07.428Z,5.77
2018-04-18T19:16:34.451Z,5.97
2018-04-18T19:19:01.462Z,6.20
2018-04-18T19:21:27.689Z,6.53
2018-04-18T19:23:53.910Z,8.73
2018-04-18T19:26:20.153Z,11.50
2018-04-18T19:28:46.802Z,17.17
2018-04-18T19:31:13.192Z,21.70
2018-04-18T19:33:39.807Z,13.23
2018-04-18T19:36:06.174Z,13.40
2018-04-18T19:38:32.377Z,15.30
2018-04-18T19:40:58.617Z,21.97
2018-04-18T19:43:24.844Z,13.97
2018-04-18T19:45:51.128Z,13.10
2018-04-18T19:48:17.353Z,13.93
2018-04-18T19:50:43.631Z,13.90
2018-04-18T19:53:09.924Z,20.57
2018-04-18T19:55:36.268Z,31.27
2018-04-18T19:58:02.505Z,14.50
2018-04-18T20:00:28.749Z,14.60
2018-04-18T20:02:54.978Z,14.00
2018-04-18T20:05:21.294Z,13.03
2018-04-18T20:07:47.563Z,12.97
2018-04-18T20:10:13.823Z,13.07
2018-04-18T20:12:40.573Z,13.77
2018-04-18T20:15:10.443Z,13.17
2018-04-18T20:17:38.172Z,12.73
2018-04-18T20:20:04.482Z,13.13
2018-04-18T20:22:31.485Z,13.30
2018-04-18T20:24:57.657Z,12.50
2018-04-18T20:27:24.592Z,12.73
2018-04-18T20:29:51.614Z,12.87
2018-04-18T20:32:17.875Z,11.93
2018-04-18T20:34:44.160Z,12.70
2018-04-18T20:37:10.434Z,12.47
2018-04-18T20:39:37.385Z,11.80
2018-04-18T20:42:03.653Z,11.50
2018-04-18T20:44:29.876Z,11.03
2018-04-18T20:46:56.149Z,11.33
2018-04-18T20:49:23.108Z,10.80
2018-04-18T20:51:50.102Z,11.23
2018-04-18T20:54:16.474Z,11.40
2018-04-18T20:56:42.720Z,18.77
2018-04-18T20:59:08.943Z,59.50
2018-04-18T21:01:35.958Z,13.20
2018-04-18T21:04:02.165Z,11.40
2018-04-18T21:06:28.380Z,12.37
2018-04-18T21:08:54.648Z,11.90
2018-04-18T21:11:21.647Z,11.33
2018-04-18T21:13:47.893Z,10.73
2018-04-18T21:16:14.885Z,11.67
2018-04-18T21:18:41.884Z,10.73
2018-04-18T21:21:08.124Z,11.10
2018-04-18T21:23:34.427Z,11.33
2018-04-18T21:26:00.691Z,10.53
2018-04-18T21:28:26.927Z,10.47
2018-04-18T21:30:54.193Z,10.17
2018-04-18T21:33:20.425Z,10.60
2018-04-18T21:35:47.436Z,10.30
2018-04-18T21:38:13.637Z,10.50
2018-04-18T21:40:39.904Z,10.40
2018-04-18T21:43:06.169Z,10.53
2018-04-18T21:45:33.394Z,10.90
2018-04-18T21:48:00.411Z,10.73
2018-04-18T21:50:26.678Z,10.97
2018-04-18T21:52:52.917Z,9.97
2018-04-18T21:55:19.131Z,10.53
2018-04-18T21:57:45.691Z,10.20
2018-04-18T22:00:11.904Z,10.27
2018-04-18T22:02:38.116Z,9.97
2018-04-18T22:05:05.120Z,10.17
2018-04-18T22:07:31.590Z,10.83
2018-04-18T22:09:57.917Z,9.57
2018-04-18T22:12:24.916Z,10.07
2018-04-18T22:14:51.144Z,10.13
2018-04-18T22:17:17.501Z,10.57
2018-04-18T22:19:43.709Z,9.70
2018-04-18T22:22:09.956Z,9.77
2018-04-18T22:24:36.221Z,10.20
2018-04-18T22:27:02.547Z,9.57
2018-04-18T22:29:30.455Z,9.00
2018-04-18T22:31:56.707Z,9.40
2018-04-18T22:34:22.903Z,8.40
2018-04-18T22:36:49.235Z,9.43
2018-04-18T22:39:15.560Z,8.93
2018-04-18T22:41:41.821Z,9.73
2018-04-18T22:44:08.057Z,8.50
2018-04-18T22:46:34.408Z,9.27
2018-04-18T22:49:00.707Z,8.80
2018-04-18T22:51:26.976Z,8.63
2018-04-18T22:53:53.936Z,8.07
2018-04-18T22:56:20.185Z,7.80
2018-04-18T22:58:46.417Z,7.73
2018-04-18T23:01:12.651Z,8.10
2018-04-18T23:03:38.868Z,7.80
2018-04-18T23:06:05.121Z,7.27
2018-04-18T23:08:31.336Z,7.23
2018-04-18T23:10:57.560Z,7.20
2018-04-18T23:13:23.762Z,6.63
2018-04-18T23:15:49.989Z,6.33
2018-04-18T23:18:16.236Z,6.67
2018-04-18T23:20:42.523Z,6.30
2018-04-18T23:23:09.525Z,6.10
2018-04-18T23:25:35.717Z,6.53
2018-04-18T23:28:01.936Z,6.50
2018-04-18T23:30:28.880Z,5.73
2018-04-18T23:32:55.108Z,6.07
2018-04-18T23:35:22.078Z,6.03
2018-04-18T23:37:48.365Z,5.87
2018-04-18T23:40:15.378Z,5.60
2018-04-18T23:42:41.659Z,5.03
2018-04-18T23:45:07.869Z,5.23
2018-04-18T23:47:34.845Z,4.93
2018-04-18T23:50:01.106Z,5.33
2018-04-18T23:52:27.357Z,4.77
2018-04-18T23:54:53.741Z,4.70
2018-04-18T23:57:20.094Z,4.37
2018-04-18T23:59:46.342Z,5.00
